createdAt,value
2023-04-14T00:00:02.588Z,5.53
2023-04-14T00:01:03.237Z,5.51
2023-04-14T00:02:04.262Z,5.50
2023-04-14T00:03:04.641Z,5.49
2023-04-14T00:04:05.337Z,5.48
2023-04-14T00:05:05.637Z,5.46
2023-04-14T00:06:06.069Z,5.44
2023-04-14T00:07:06.530Z,5.43
2023-04-14T00:07:16.208Z,5.36
2023-04-14T00:08:16.651Z,5.35
2023-04-14T00:09:17.242Z,5.33
2023-04-14T00:10:17.796Z,5.31
2023-04-14T00:11:18.125Z,5.29
2023-04-14T00:12:18.696Z,5.28
2023-04-14T00:13:19.229Z,5.27
2023-04-14T00:14:20.058Z,5.26
2023-04-14T00:15:20.469Z,5.26
2023-04-14T00:16:21.081Z,5.25
2023-04-14T00:17:21.392Z,5.24
2023-04-14T00:18:21.844Z,5.23
2023-04-14T00:18:32.480Z,4.18
2023-04-14T00:19:32.944Z,5.04
2023-04-14T00:20:33.544Z,5.04
2023-04-14T00:21:34.187Z,5.03
2023-04-14T00:22:34.807Z,5.03
2023-04-14T00:23:35.114Z,5.01
2023-04-14T00:24:35.502Z,5.00
2023-04-14T00:25:35.803Z,5.00
2023-04-14T00:26:36.658Z,4.98
2023-04-14T00:27:37.129Z,4.97
2023-04-14T00:28:37.520Z,4.96
2023-04-14T00:29:37.820Z,4.95
2023-04-14T00:29:46.466Z,4.95
2023-04-14T00:30:47.264Z,4.94
2023-04-14T00:31:47.494Z,4.93
2023-04-14T00:32:48.155Z,4.92
2023-04-14T00:33:48.534Z,4.91
2023-04-14T00:34:48.894Z,4.91
2023-04-14T00:35:49.366Z,4.90
2023-04-14T00:36:49.899Z,4.90
2023-04-14T00:37:50.037Z,4.89
2023-04-14T00:38:50.433Z,4.89
2023-04-14T00:39:50.825Z,4.89
2023-04-14T00:40:51.065Z,4.88
2023-04-14T00:40:59.712Z,4.88
2023-04-14T00:42:00.229Z,4.88
2023-04-14T00:43:00.871Z,4.87
2023-04-14T00:44:01.324Z,4.87
2023-04-14T00:45:01.692Z,4.86
2023-04-14T00:46:02.058Z,4.85
2023-04-14T00:47:02.825Z,4.84
2023-04-14T00:48:03.179Z,4.83
2023-04-14T00:49:03.877Z,4.83
2023-04-14T00:50:03.986Z,4.82
2023-04-14T00:51:04.274Z,4.81
2023-04-14T00:52:04.606Z,4.80
2023-04-14T00:53:04.650Z,4.79
2023-04-14T00:53:13.733Z,4.79
2023-04-14T00:54:14.301Z,4.78
2023-04-14T00:55:15.144Z,4.77
2023-04-14T00:56:15.659Z,4.77
2023-04-14T00:57:16.247Z,4.76
2023-04-14T00:58:16.817Z,4.75
2023-04-14T00:59:17.339Z,4.74
2023-04-14T01:00:17.728Z,4.73
2023-04-14T01:01:18.401Z,4.72
2023-04-14T01:02:19.295Z,4.72
2023-04-14T01:03:19.732Z,4.71
2023-04-14T01:04:20.194Z,4.70
2023-04-14T01:04:44.558Z,4.69
2023-04-14T01:05:31.301Z,4.69
2023-04-14T01:06:31.692Z,4.68
2023-04-14T01:07:32.532Z,4.66
2023-04-14T01:08:32.938Z,4.65
2023-04-14T01:09:33.302Z,4.64
2023-04-14T01:10:33.701Z,4.63
2023-04-14T01:11:34.081Z,4.62
2023-04-14T01:12:34.764Z,4.60
2023-04-14T01:13:35.646Z,4.59
2023-04-14T01:14:36.070Z,4.57
2023-04-14T01:14:45.041Z,4.55
2023-04-14T01:15:45.511Z,4.53
2023-04-14T01:16:46.171Z,4.51
2023-04-14T01:17:46.698Z,4.49
2023-04-14T01:18:47.087Z,4.48
2023-04-14T01:19:47.584Z,4.47
2023-04-14T01:20:49.076Z,4.45
2023-04-14T01:21:48.553Z,4.45
2023-04-14T01:22:49.123Z,4.44
2023-04-14T01:23:49.532Z,4.43
2023-04-14T01:24:49.984Z,4.43
2023-04-14T01:25:50.383Z,4.42
2023-04-14T01:26:00.916Z,4.42
2023-04-14T01:27:01.384Z,4.41
2023-04-14T01:28:01.885Z,4.40
2023-04-14T01:29:03.691Z,4.39
2023-04-14T01:30:03.240Z,4.37
2023-04-14T01:31:03.650Z,4.37
2023-04-14T01:32:04.058Z,4.36
2023-04-14T01:33:04.631Z,4.35
2023-04-14T01:34:04.794Z,4.34
2023-04-14T01:35:05.287Z,4.33
2023-04-14T01:36:05.922Z,4.33
2023-04-14T01:37:06.795Z,4.32
2023-04-14T01:37:17.245Z,4.32
2023-04-14T01:38:18.190Z,4.32
2023-04-14T01:39:18.673Z,4.33
2023-04-14T01:40:19.135Z,4.32
2023-04-14T01:41:19.503Z,4.32
2023-04-14T01:42:19.898Z,4.32
2023-04-14T01:43:20.359Z,4.32
2023-04-14T01:44:20.736Z,4.31
2023-04-14T01:45:21.207Z,4.31
2023-04-14T01:46:21.881Z,4.29
2023-04-14T01:47:22.095Z,4.28
2023-04-14T01:47:30.749Z,4.26
2023-04-14T01:48:31.525Z,4.25
2023-04-14T01:49:32.035Z,4.24
2023-04-14T01:50:32.788Z,4.22
2023-04-14T01:51:33.187Z,4.21
2023-04-14T01:52:33.585Z,4.20
2023-04-14T01:53:34.208Z,4.18
2023-04-14T01:54:34.635Z,4.16
2023-04-14T01:55:35.015Z,4.15
2023-04-14T01:56:35.355Z,4.13
2023-04-14T01:57:35.704Z,4.10
2023-04-14T01:58:36.100Z,4.08
2023-04-14T01:58:46.284Z,3.87
2023-04-14T01:59:46.672Z,3.73
2023-04-14T02:00:47.102Z,3.73
2023-04-14T02:01:47.524Z,3.74
2023-04-14T02:02:48.191Z,3.74
2023-04-14T02:03:48.486Z,3.74
2023-04-14T02:04:48.868Z,3.74
2023-04-14T02:05:49.462Z,3.74
2023-04-14T02:06:49.730Z,3.74
2023-04-14T02:07:50.247Z,3.74
2023-04-14T02:08:51.724Z,3.74
2023-04-14T02:09:51.528Z,3.74
2023-04-14T02:10:52.097Z,3.74
2023-04-14T02:11:00.795Z,3.84
2023-04-14T02:12:01.119Z,3.79
2023-04-14T02:13:01.655Z,3.79
2023-04-14T02:14:01.803Z,3.79
2023-04-14T02:15:02.495Z,3.78
2023-04-14T02:16:02.923Z,3.78
2023-04-14T02:17:03.634Z,3.77
2023-04-14T02:18:04.038Z,3.76
2023-04-14T02:19:04.376Z,3.76
2023-04-14T02:20:04.942Z,3.75
2023-04-14T02:21:05.723Z,3.75
2023-04-14T02:21:14.840Z,3.73
2023-04-14T02:22:15.441Z,3.63
2023-04-14T02:23:15.914Z,3.62
2023-04-14T02:24:16.333Z,3.62
2023-04-14T02:25:16.922Z,3.62
2023-04-14T02:26:17.370Z,3.62
2023-04-14T02:27:18.778Z,3.61
2023-04-14T02:28:18.345Z,3.61
2023-04-14T02:29:18.731Z,3.60
2023-04-14T02:30:19.669Z,3.59
2023-04-14T02:31:20.099Z,3.58
2023-04-14T02:32:20.412Z,3.57
2023-04-14T02:32:29.452Z,3.43
2023-04-14T02:33:29.809Z,3.46
2023-04-14T02:34:30.400Z,3.45
2023-04-14T02:35:30.984Z,3.45
2023-04-14T02:36:31.635Z,3.45
2023-04-14T02:37:32.543Z,3.45
2023-04-14T02:38:33.296Z,3.44
2023-04-14T02:39:33.769Z,3.44
2023-04-14T02:40:34.291Z,3.43
2023-04-14T02:41:34.730Z,3.43
2023-04-14T02:42:35.130Z,3.42
2023-04-14T02:42:43.775Z,3.38
2023-04-14T02:43:43.922Z,3.29
2023-04-14T02:44:44.228Z,3.29
2023-04-14T02:45:45.048Z,3.29
2023-04-14T02:46:45.749Z,3.29
2023-04-14T02:47:46.097Z,3.30
2023-04-14T02:48:46.492Z,3.30
2023-04-14T02:49:47.202Z,3.31
2023-04-14T02:50:47.619Z,3.31
2023-04-14T02:51:47.934Z,3.32
2023-04-14T02:52:48.670Z,3.32
2023-04-14T02:53:50.023Z,3.33
2023-04-14T02:53:58.631Z,3.53
2023-04-14T02:54:59.005Z,3.42
2023-04-14T02:55:59.621Z,3.42
2023-04-14T02:56:59.981Z,3.42
2023-04-14T02:58:00.301Z,3.41
2023-04-14T02:59:01.368Z,3.41
2023-04-14T03:00:01.567Z,3.41
2023-04-14T03:01:02.069Z,3.41
2023-04-14T03:02:02.636Z,3.40
2023-04-14T03:03:03.253Z,3.39
2023-04-14T03:04:03.613Z,3.38
2023-04-14T03:04:12.248Z,3.43
2023-04-14T03:05:12.623Z,3.29
2023-04-14T03:06:13.187Z,3.29
2023-04-14T03:07:13.678Z,3.29
2023-04-14T03:08:13.997Z,3.28
2023-04-14T03:09:14.421Z,3.28
2023-04-14T03:10:15.393Z,3.28
2023-04-14T03:11:16.056Z,3.28
2023-04-14T03:12:16.476Z,3.29
2023-04-14T03:13:16.810Z,3.29
2023-04-14T03:14:17.254Z,3.29
2023-04-14T03:15:17.644Z,3.29
2023-04-14T03:15:27.285Z,3.29
2023-04-14T03:16:27.821Z,3.29
2023-04-14T03:17:28.035Z,3.29
2023-04-14T03:18:28.424Z,3.28
2023-04-14T03:19:28.849Z,3.28
2023-04-14T03:20:29.527Z,3.27
2023-04-14T03:21:31.445Z,3.26
2023-04-14T03:22:30.915Z,3.25
2023-04-14T03:23:31.293Z,3.22
2023-04-14T03:24:31.672Z,3.21
2023-04-14T03:25:32.081Z,3.18
2023-04-14T03:26:33.006Z,3.16
2023-04-14T03:27:33.280Z,3.13
2023-04-14T03:27:41.856Z,2.76
2023-04-14T03:28:42.302Z,2.66
2023-04-14T03:29:42.597Z,2.66
2023-04-14T03:30:43.022Z,2.66
2023-04-14T03:31:43.718Z,2.65
2023-04-14T03:32:44.153Z,2.65
2023-04-14T03:33:44.560Z,2.65
2023-04-14T03:34:45.008Z,2.65
2023-04-14T03:35:45.474Z,2.66
2023-04-14T03:36:46.070Z,2.66
2023-04-14T03:37:46.639Z,2.67
2023-04-14T03:38:47.070Z,2.67
2023-04-14T03:38:55.755Z,2.91
2023-04-14T03:39:56.137Z,2.79
2023-04-14T03:40:56.952Z,2.79
2023-04-14T03:41:57.527Z,2.80
2023-04-14T03:42:57.787Z,2.80
2023-04-14T03:43:58.403Z,2.80
2023-04-14T03:44:59.173Z,2.81
2023-04-14T03:45:59.555Z,2.81
2023-04-14T03:47:00.161Z,2.82
2023-04-14T03:48:00.921Z,2.82
2023-04-14T03:49:01.538Z,2.82
2023-04-14T03:50:01.793Z,2.82
2023-04-14T03:50:12.351Z,2.81
2023-04-14T03:51:12.805Z,2.70
2023-04-14T03:52:13.531Z,2.69
2023-04-14T03:53:13.948Z,2.69
2023-04-14T03:54:14.226Z,2.69
2023-04-14T03:55:14.635Z,2.69
2023-04-14T03:56:15.085Z,2.69
2023-04-14T03:57:15.530Z,2.69
2023-04-14T03:58:15.945Z,2.69
2023-04-14T03:59:16.632Z,2.70
2023-04-14T04:00:16.949Z,2.70
2023-04-14T04:00:25.576Z,2.83
2023-04-14T04:01:25.934Z,2.72
2023-04-14T04:02:26.572Z,2.72
2023-04-14T04:03:26.989Z,2.72
2023-04-14T04:04:27.385Z,2.71
2023-04-14T04:05:27.549Z,2.71
2023-04-14T04:06:27.831Z,2.71
2023-04-14T04:07:28.793Z,2.71
2023-04-14T04:08:29.300Z,2.71
2023-04-14T04:09:29.666Z,2.71
2023-04-14T04:10:30.152Z,2.72
2023-04-14T04:11:30.539Z,2.72
2023-04-14T04:11:40.182Z,2.70
2023-04-14T04:12:40.616Z,2.68
2023-04-14T04:13:40.915Z,2.67
2023-04-14T04:14:41.597Z,2.66
2023-04-14T04:15:42.143Z,2.65
2023-04-14T04:16:42.460Z,2.63
2023-04-14T04:17:42.982Z,2.63
2023-04-14T04:18:43.290Z,2.62
2023-04-14T04:19:44.076Z,2.62
2023-04-14T04:20:44.491Z,2.62
2023-04-14T04:21:44.883Z,2.62
2023-04-14T04:21:54.555Z,2.60
2023-04-14T04:22:54.990Z,2.59
2023-04-14T04:23:55.397Z,2.59
2023-04-14T04:24:55.826Z,2.59
2023-04-14T04:25:56.544Z,2.58
2023-04-14T04:26:57.275Z,2.58
2023-04-14T04:27:57.945Z,2.57
2023-04-14T04:28:58.583Z,2.56
2023-04-14T04:29:58.897Z,2.54
2023-04-14T04:30:59.361Z,2.53
2023-04-14T04:31:59.499Z,2.53
2023-04-14T04:32:08.206Z,2.53
2023-04-14T04:33:08.669Z,2.43
2023-04-14T04:34:09.003Z,2.43
2023-04-14T04:35:09.528Z,2.43
2023-04-14T04:36:09.952Z,2.43
2023-04-14T04:37:10.564Z,2.43
2023-04-14T04:38:11.096Z,2.43
2023-04-14T04:39:11.557Z,2.42
2023-04-14T04:40:11.870Z,2.42
2023-04-14T04:41:12.183Z,2.41
2023-04-14T04:42:12.587Z,2.40
2023-04-14T04:42:21.273Z,2.32
2023-04-14T04:43:21.764Z,2.31
2023-04-14T04:44:22.291Z,2.31
2023-04-14T04:45:22.705Z,2.30
2023-04-14T04:46:23.108Z,2.30
2023-04-14T04:47:23.548Z,2.30
2023-04-14T04:48:24.171Z,2.30
2023-04-14T04:49:24.520Z,2.30
2023-04-14T04:50:24.891Z,2.30
2023-04-14T04:51:25.180Z,2.29
2023-04-14T04:52:25.522Z,2.29
2023-04-14T04:53:26.022Z,2.30
2023-04-14T04:54:26.385Z,2.30
2023-04-14T04:54:36.471Z,2.36
2023-04-14T04:55:37.216Z,2.35
2023-04-14T04:56:37.513Z,2.35
2023-04-14T04:57:37.825Z,2.35
2023-04-14T04:58:38.340Z,2.35
2023-04-14T04:59:38.665Z,2.35
2023-04-14T05:00:39.001Z,2.35
2023-04-14T05:01:39.355Z,2.35
2023-04-14T05:02:39.771Z,2.35
2023-04-14T05:03:40.137Z,2.35
2023-04-14T05:04:40.950Z,2.35
2023-04-14T05:04:49.611Z,2.47
2023-04-14T05:05:50.233Z,2.37
2023-04-14T05:06:50.614Z,2.36
2023-04-14T05:07:50.967Z,2.36
2023-04-14T05:08:51.796Z,2.35
2023-04-14T05:09:52.088Z,2.34
2023-04-14T05:10:53.491Z,2.34
2023-04-14T05:11:52.828Z,2.34
2023-04-14T05:12:53.313Z,2.34
2023-04-14T05:13:54.311Z,2.34
2023-04-14T05:14:54.779Z,2.35
2023-04-14T05:15:05.407Z,2.41
2023-04-14T05:16:05.820Z,2.40
2023-04-14T05:17:06.222Z,2.40
2023-04-14T05:18:06.696Z,2.41
2023-04-14T05:19:07.120Z,2.41
2023-04-14T05:20:07.554Z,2.42
2023-04-14T05:21:07.881Z,2.43
2023-04-14T05:22:08.284Z,2.43
2023-04-14T05:23:09.096Z,2.44
2023-04-14T05:24:09.584Z,2.45
2023-04-14T05:25:09.955Z,2.46
2023-04-14T05:26:31.047Z,2.47
2023-04-14T05:27:19.454Z,2.65
2023-04-14T05:28:19.994Z,2.65
2023-04-14T05:29:20.527Z,2.64
2023-04-14T05:30:20.817Z,2.64
2023-04-14T05:31:21.175Z,2.63
2023-04-14T05:32:21.619Z,2.62
2023-04-14T05:33:22.034Z,2.62
2023-04-14T05:34:22.525Z,2.61
2023-04-14T05:35:22.853Z,2.61
2023-04-14T05:36:23.151Z,2.60
2023-04-14T05:37:23.412Z,2.59
2023-04-14T05:37:35.695Z,2.41
2023-04-14T05:38:35.434Z,2.39
2023-04-14T05:39:34.795Z,2.39
2023-04-14T05:40:35.148Z,2.40
2023-04-14T05:41:35.485Z,2.40
2023-04-14T05:42:35.841Z,2.41
2023-04-14T05:43:36.187Z,2.42
2023-04-14T05:44:36.696Z,2.44
2023-04-14T05:45:37.035Z,2.45
2023-04-14T05:46:37.376Z,2.47
2023-04-14T05:47:37.715Z,2.50
2023-04-14T05:48:38.174Z,2.55
2023-04-14T05:48:46.782Z,3.71
2023-04-14T05:49:47.257Z,3.71
2023-04-14T05:50:47.566Z,3.74
2023-04-14T05:51:47.819Z,3.80
2023-04-14T05:52:48.002Z,3.89
2023-04-14T05:53:48.729Z,4.00
2023-04-14T05:54:49.194Z,4.13
2023-04-14T05:55:49.463Z,4.28
2023-04-14T05:56:49.880Z,4.42
2023-04-14T05:57:50.230Z,4.56
2023-04-14T05:58:50.519Z,4.71
2023-04-14T05:59:50.985Z,4.90
2023-04-14T05:59:59.610Z,8.01
2023-04-14T06:00:59.954Z,8.08
2023-04-14T06:02:00.308Z,8.12
2023-04-14T06:03:00.904Z,8.18
2023-04-14T06:04:01.625Z,8.24
2023-04-14T06:05:01.906Z,8.33
2023-04-14T06:06:02.126Z,8.38
2023-04-14T06:07:02.541Z,8.47
2023-04-14T06:08:02.952Z,8.54
2023-04-14T06:09:03.350Z,8.62
2023-04-14T06:10:04.089Z,8.68
2023-04-14T06:11:03.893Z,8.78
2023-04-14T06:11:13.320Z,8.80
2023-04-14T06:12:13.594Z,8.91
2023-04-14T06:13:14.008Z,9.02
2023-04-14T06:14:14.326Z,9.17
2023-04-14T06:15:14.845Z,9.33
2023-04-14T06:16:15.170Z,9.49
2023-04-14T06:17:15.450Z,9.65
2023-04-14T06:18:15.931Z,9.80
2023-04-14T06:19:16.463Z,10.02
2023-04-14T06:20:16.901Z,10.26
2023-04-14T06:21:17.250Z,10.48
2023-04-14T06:21:25.930Z,10.71
2023-04-14T06:22:26.357Z,10.92
2023-04-14T06:23:26.706Z,11.12
2023-04-14T06:24:26.992Z,11.31
2023-04-14T06:25:27.396Z,11.52
2023-04-14T06:26:27.690Z,11.70
2023-04-14T06:27:28.108Z,11.83
2023-04-14T06:28:28.424Z,11.96
2023-04-14T06:29:28.738Z,12.10
2023-04-14T06:30:29.380Z,12.25
2023-04-14T06:31:30.162Z,12.37
2023-04-14T06:32:31.144Z,12.47
2023-04-14T06:32:39.782Z,12.57
2023-04-14T06:33:40.114Z,12.66
2023-04-14T06:34:40.506Z,12.76
2023-04-14T06:35:40.978Z,12.83
2023-04-14T06:36:41.496Z,12.87
2023-04-14T06:37:42.889Z,12.91
2023-04-14T06:38:42.220Z,12.97
2023-04-14T06:39:42.616Z,13.06
2023-04-14T06:40:42.981Z,13.14
2023-04-14T06:41:43.626Z,13.23
2023-04-14T06:42:44.084Z,13.30
2023-04-14T06:43:44.420Z,13.41
2023-04-14T06:43:53.035Z,13.54
2023-04-14T06:44:53.360Z,13.65
2023-04-14T06:45:54.328Z,13.74
2023-04-14T06:46:56.891Z,13.88
2023-04-14T06:47:55.150Z,14.02
2023-04-14T06:48:55.075Z,14.15
2023-04-14T06:49:55.404Z,14.29
2023-04-14T06:50:56.403Z,14.46
2023-04-14T06:51:56.789Z,14.65
2023-04-14T06:52:57.287Z,14.81
2023-04-14T06:53:57.704Z,14.93
2023-04-14T06:54:58.097Z,15.01
2023-04-14T06:55:09.754Z,8.75
2023-04-14T06:56:10.486Z,16.50
2023-04-14T06:57:11.280Z,16.48
2023-04-14T06:58:11.683Z,16.41
2023-04-14T06:59:12.393Z,16.36
2023-04-14T07:00:12.866Z,16.23
2023-04-14T07:01:14.560Z,16.11
2023-04-14T07:02:13.961Z,16.06
2023-04-14T07:03:14.697Z,16.00
2023-04-14T07:04:15.645Z,15.94
2023-04-14T07:05:15.966Z,15.84
2023-04-14T07:06:16.499Z,15.80
2023-04-14T07:06:25.149Z,11.31
2023-04-14T07:07:25.578Z,15.21
2023-04-14T07:08:26.132Z,15.24
2023-04-14T07:09:26.772Z,15.29
2023-04-14T07:10:27.061Z,15.32
2023-04-14T07:11:27.675Z,15.35
2023-04-14T07:12:28.054Z,15.37
2023-04-14T07:13:28.468Z,15.41
2023-04-14T07:14:29.048Z,15.44
2023-04-14T07:15:29.662Z,15.42
2023-04-14T07:16:30.183Z,15.42
2023-04-14T07:17:30.514Z,15.44
2023-04-14T07:17:39.082Z,15.28
2023-04-14T07:18:39.305Z,15.31
2023-04-14T07:19:39.630Z,15.36
2023-04-14T07:20:39.977Z,15.42
2023-04-14T07:21:40.388Z,15.49
2023-04-14T07:22:40.764Z,15.58
2023-04-14T07:23:41.087Z,15.64
2023-04-14T07:24:41.182Z,15.72
2023-04-14T07:25:41.611Z,15.82
2023-04-14T07:26:42.032Z,15.94
2023-04-14T07:27:52.686Z,16.02
2023-04-14T07:28:02.631Z,15.89
2023-04-14T07:28:51.362Z,15.97
2023-04-14T07:29:51.808Z,16.07
2023-04-14T07:30:52.277Z,16.16
2023-04-14T07:31:52.830Z,16.23
2023-04-14T07:32:53.662Z,16.33
2023-04-14T07:33:54.066Z,16.44
2023-04-14T07:34:54.430Z,16.56
2023-04-14T07:36:02.926Z,16.67
2023-04-14T07:36:55.427Z,16.79
2023-04-14T07:37:56.035Z,16.88
2023-04-14T07:38:56.096Z,16.95
2023-04-14T07:39:56.567Z,17.05
2023-04-14T07:40:08.522Z,17.18
2023-04-14T07:41:08.875Z,17.29
2023-04-14T07:42:09.376Z,17.39
2023-04-14T07:43:09.834Z,17.47
2023-04-14T07:44:10.251Z,17.56
2023-04-14T07:45:10.607Z,17.72
2023-04-14T07:46:11.229Z,17.88
2023-04-14T07:47:11.975Z,18.05
2023-04-14T07:48:12.477Z,18.21
2023-04-14T07:49:12.864Z,18.35
2023-04-14T07:50:13.385Z,18.47
2023-04-14T07:50:23.026Z,18.38
2023-04-14T07:51:23.840Z,18.48
2023-04-14T07:52:24.397Z,18.61
2023-04-14T07:53:24.832Z,18.78
2023-04-14T07:54:25.188Z,18.93
2023-04-14T07:55:27.510Z,19.06
2023-04-14T07:56:26.187Z,19.18
2023-04-14T07:57:26.685Z,19.33
2023-04-14T07:58:29.066Z,19.44
2023-04-14T07:59:27.372Z,19.53
2023-04-14T08:00:27.925Z,19.61
2023-04-14T08:01:28.394Z,19.67
2023-04-14T08:02:29.068Z,19.80
2023-04-14T08:02:39.171Z,19.80
2023-04-14T08:03:39.005Z,19.95
2023-04-14T08:04:39.167Z,20.06
2023-04-14T08:05:39.573Z,20.15
2023-04-14T08:06:39.567Z,20.24
2023-04-14T08:07:40.145Z,20.29
2023-04-14T08:08:40.605Z,20.32
2023-04-14T08:09:41.296Z,20.33
2023-04-14T08:10:41.744Z,20.33
2023-04-14T08:11:42.869Z,20.36
2023-04-14T08:12:43.292Z,20.37
2023-04-14T08:13:43.804Z,20.30
2023-04-14T08:14:43.842Z,20.25
2023-04-14T08:14:52.496Z,20.13
2023-04-14T08:15:52.610Z,20.01
2023-04-14T08:16:52.665Z,19.88
2023-04-14T08:17:53.093Z,19.78
2023-04-14T08:18:55.680Z,19.68
2023-04-14T08:19:54.564Z,19.60
2023-04-14T08:20:55.352Z,19.53
2023-04-14T08:21:55.865Z,19.43
2023-04-14T08:22:56.441Z,19.31
2023-04-14T08:23:57.034Z,19.26
2023-04-14T08:24:58.668Z,19.21
2023-04-14T08:25:58.211Z,19.17
2023-04-14T08:26:07.353Z,19.15
2023-04-14T08:27:07.786Z,19.13
2023-04-14T08:28:08.267Z,19.09
2023-04-14T08:29:08.596Z,19.04
2023-04-14T08:30:10.294Z,19.00
2023-04-14T08:31:09.903Z,18.96
2023-04-14T08:32:10.770Z,18.95
2023-04-14T08:33:11.492Z,18.94
2023-04-14T08:34:12.011Z,18.89
2023-04-14T08:35:35.328Z,18.85
2023-04-14T08:36:12.930Z,18.81
2023-04-14T08:37:13.481Z,18.77
2023-04-14T08:38:13.959Z,18.74
2023-04-14T08:38:22.619Z,18.72
2023-04-14T08:39:23.038Z,18.71
2023-04-14T08:40:23.558Z,18.72
2023-04-14T08:41:24.349Z,18.70
2023-04-14T08:42:25.727Z,18.69
2023-04-14T08:43:25.324Z,18.63
2023-04-14T08:44:25.734Z,18.58
2023-04-14T08:45:26.385Z,18.53
2023-04-14T08:46:26.941Z,18.51
2023-04-14T08:47:27.598Z,18.46
2023-04-14T08:48:28.011Z,18.42
2023-04-14T08:49:28.422Z,18.37
2023-04-14T08:49:37.044Z,18.30
2023-04-14T08:50:37.879Z,18.24
2023-04-14T08:51:38.641Z,18.17
2023-04-14T08:52:39.184Z,18.07
2023-04-14T08:53:39.690Z,17.98
2023-04-14T08:54:40.347Z,17.91
2023-04-14T08:55:41.035Z,17.84
2023-04-14T08:56:41.483Z,17.77
2023-04-14T08:57:41.917Z,17.69
2023-04-14T08:58:42.472Z,17.60
2023-04-14T08:59:43.115Z,17.53
2023-04-14T09:00:43.535Z,17.45
2023-04-14T09:01:44.003Z,17.37
2023-04-14T09:01:53.245Z,17.29
2023-04-14T09:02:53.890Z,17.21
2023-04-14T09:03:54.472Z,17.13
2023-04-14T09:04:55.261Z,17.06
2023-04-14T09:05:55.706Z,16.98
2023-04-14T09:06:57.202Z,16.90
2023-04-14T09:07:57.079Z,16.84
2023-04-14T09:08:57.477Z,16.78
2023-04-14T09:09:57.892Z,16.74
2023-04-14T09:10:58.252Z,16.68
2023-04-14T09:11:58.791Z,16.62
2023-04-14T09:12:59.538Z,16.57
2023-04-14T09:13:08.211Z,16.53
2023-04-14T09:14:08.679Z,16.48
2023-04-14T09:15:09.123Z,16.43
2023-04-14T09:16:09.118Z,16.38
2023-04-14T09:17:09.628Z,16.34
2023-04-14T09:18:10.535Z,16.31
2023-04-14T09:19:11.117Z,16.28
2023-04-14T09:20:38.636Z,16.24
2023-04-14T09:21:29.792Z,16.19
2023-04-14T09:22:12.976Z,16.16
2023-04-14T09:23:13.474Z,16.12
2023-04-14T09:24:14.411Z,16.08
2023-04-14T09:24:26.084Z,16.06
2023-04-14T09:25:26.441Z,16.04
2023-04-14T09:26:27.193Z,16.04
2023-04-14T09:27:27.366Z,16.04
2023-04-14T09:28:27.836Z,16.06
2023-04-14T09:29:28.264Z,16.06
2023-04-14T09:30:28.901Z,16.04
2023-04-14T09:31:29.407Z,16.03
2023-04-14T09:32:29.872Z,16.01
2023-04-14T09:33:30.294Z,16.00
2023-04-14T09:34:30.454Z,16.00
2023-04-14T09:35:30.860Z,16.00
2023-04-14T09:35:39.517Z,15.99
2023-04-14T09:36:39.937Z,15.99
2023-04-14T09:37:40.372Z,16.01
2023-04-14T09:38:40.889Z,16.03
2023-04-14T09:39:41.316Z,16.05
2023-04-14T09:40:41.751Z,16.08
2023-04-14T09:41:42.119Z,16.10
2023-04-14T09:42:42.492Z,16.12
2023-04-14T09:43:42.849Z,16.16
2023-04-14T09:44:43.206Z,16.20
2023-04-14T09:45:43.650Z,16.25
2023-04-14T09:46:44.340Z,16.29
2023-04-14T09:46:54.947Z,16.32
2023-04-14T09:47:53.291Z,16.34
2023-04-14T09:48:53.992Z,16.37
2023-04-14T09:49:54.430Z,16.42
2023-04-14T09:50:54.791Z,16.45
2023-04-14T09:51:55.350Z,16.47
2023-04-14T09:52:55.726Z,16.49
2023-04-14T09:53:56.499Z,16.50
2023-04-14T09:54:56.909Z,16.51
2023-04-14T09:55:57.258Z,16.51
2023-04-14T09:56:57.569Z,16.50
2023-04-14T09:57:57.828Z,16.50
2023-04-14T09:58:58.322Z,16.50
2023-04-14T09:59:07.463Z,16.51
2023-04-14T10:00:08.375Z,16.52
2023-04-14T10:01:08.753Z,16.51
2023-04-14T10:02:09.305Z,16.50
2023-04-14T10:03:10.149Z,16.50
2023-04-14T10:04:11.199Z,16.48
2023-04-14T10:05:11.832Z,16.49
2023-04-14T10:06:12.336Z,16.50
2023-04-14T10:07:12.777Z,16.51
2023-04-14T10:08:13.586Z,16.54
2023-04-14T10:09:14.044Z,16.54
2023-04-14T10:10:14.471Z,16.53
2023-04-14T10:10:26.191Z,16.53
2023-04-14T10:11:26.609Z,16.54
2023-04-14T10:12:26.940Z,16.54
2023-04-14T10:13:27.418Z,16.54
2023-04-14T10:14:27.697Z,16.55
2023-04-14T10:15:28.160Z,16.57
2023-04-14T10:16:29.603Z,16.60
2023-04-14T10:17:30.288Z,16.64
2023-04-14T10:18:29.229Z,16.66
2023-04-14T10:19:29.669Z,16.68
2023-04-14T10:20:30.155Z,16.70
2023-04-14T10:20:38.765Z,16.67
2023-04-14T10:21:39.122Z,16.65
2023-04-14T10:22:41.119Z,16.61
2023-04-14T10:23:39.957Z,16.57
2023-04-14T10:24:40.411Z,16.52
2023-04-14T10:25:41.233Z,16.45
2023-04-14T10:26:41.684Z,16.38
2023-04-14T10:27:42.558Z,16.29
2023-04-14T10:28:43.278Z,16.22
2023-04-14T10:29:43.681Z,16.16
2023-04-14T10:30:44.155Z,16.11
2023-04-14T10:30:52.784Z,16.05
2023-04-14T10:31:53.261Z,15.99
2023-04-14T10:32:53.612Z,15.96
2023-04-14T10:33:55.582Z,15.93
2023-04-14T10:34:55.054Z,15.91
2023-04-14T10:35:55.528Z,15.90
2023-04-14T10:36:55.984Z,15.90
2023-04-14T10:37:56.354Z,15.92
2023-04-14T10:38:56.767Z,15.94
2023-04-14T10:39:57.106Z,15.92
2023-04-14T10:40:57.698Z,15.88
2023-04-14T10:41:10.741Z,15.84
2023-04-14T10:42:11.088Z,15.80
2023-04-14T10:43:11.717Z,15.76
2023-04-14T10:44:12.044Z,15.71
2023-04-14T10:45:12.417Z,15.65
2023-04-14T10:46:12.930Z,15.59
2023-04-14T10:47:13.840Z,15.52
2023-04-14T10:48:14.187Z,15.44
2023-04-14T10:49:14.274Z,15.37
2023-04-14T10:50:14.807Z,15.32
2023-04-14T10:51:15.218Z,15.27
2023-04-14T10:52:15.682Z,15.22
2023-04-14T10:52:27.822Z,15.15
2023-04-14T10:53:28.152Z,15.09
2023-04-14T10:54:28.514Z,15.02
2023-04-14T10:55:28.837Z,14.95
2023-04-14T10:56:29.273Z,14.88
2023-04-14T10:57:29.743Z,14.81
2023-04-14T10:58:29.934Z,14.75
2023-04-14T10:59:30.368Z,14.69
2023-04-14T11:00:30.734Z,14.63
2023-04-14T11:01:31.322Z,14.56
2023-04-14T11:02:31.882Z,14.49
2023-04-14T11:02:40.690Z,14.43
2023-04-14T11:03:40.772Z,14.38
2023-04-14T11:04:41.051Z,14.34
2023-04-14T11:05:41.860Z,14.31
2023-04-14T11:06:42.431Z,14.27
2023-04-14T11:07:42.815Z,14.23
2023-04-14T11:08:43.209Z,14.19
2023-04-14T11:09:43.720Z,14.14
2023-04-14T11:10:44.066Z,14.09
2023-04-14T11:11:44.597Z,14.05
2023-04-14T11:12:45.097Z,14.01
2023-04-14T11:12:53.754Z,13.98
2023-04-14T11:13:54.588Z,13.95
2023-04-14T11:14:55.544Z,13.92
2023-04-14T11:15:56.007Z,13.88
2023-04-14T11:17:03.663Z,13.85
2023-04-14T11:17:56.888Z,13.82
2023-04-14T11:18:57.232Z,13.79
2023-04-14T11:19:57.653Z,13.77
2023-04-14T11:20:58.076Z,13.74
2023-04-14T11:21:58.518Z,13.72
2023-04-14T11:22:58.821Z,13.70
2023-04-14T11:23:10.394Z,13.68
2023-04-14T11:24:10.789Z,13.66
2023-04-14T11:25:11.169Z,13.64
2023-04-14T11:26:11.624Z,13.62
2023-04-14T11:27:12.072Z,13.61
2023-04-14T11:28:12.453Z,13.59
2023-04-14T11:29:12.801Z,13.58
2023-04-14T11:30:13.167Z,13.57
2023-04-14T11:31:13.974Z,13.56
2023-04-14T11:32:14.356Z,13.55
2023-04-14T11:33:14.785Z,13.54
2023-04-14T11:34:15.255Z,13.54
2023-04-14T11:35:15.717Z,13.54
2023-04-14T11:35:24.755Z,13.54
2023-04-14T11:36:24.932Z,13.54
2023-04-14T11:37:25.443Z,13.54
2023-04-14T11:38:26.141Z,13.54
2023-04-14T11:39:26.734Z,13.55
2023-04-14T11:40:27.340Z,13.55
2023-04-14T11:41:27.399Z,13.56
2023-04-14T11:42:28.007Z,13.57
2023-04-14T11:43:28.385Z,13.59
2023-04-14T11:44:28.704Z,13.64
2023-04-14T11:45:29.303Z,13.68
2023-04-14T11:46:29.743Z,13.72
2023-04-14T11:46:38.401Z,13.75
2023-04-14T11:47:38.839Z,13.78
2023-04-14T11:48:39.331Z,13.81
2023-04-14T11:49:39.789Z,13.82
2023-04-14T11:50:40.222Z,13.85
2023-04-14T11:51:40.570Z,13.86
2023-04-14T11:52:41.104Z,13.87
2023-04-14T11:53:41.801Z,13.88
2023-04-14T11:54:42.236Z,13.89
2023-04-14T11:55:42.615Z,13.91
2023-04-14T11:56:43.121Z,13.92
2023-04-14T11:57:44.020Z,13.93
2023-04-14T11:57:53.651Z,13.94
2023-04-14T11:58:54.038Z,13.95
2023-04-14T11:59:54.638Z,13.96
2023-04-14T12:00:56.163Z,13.97
2023-04-14T12:01:55.692Z,13.98
2023-04-14T12:02:56.303Z,13.99
2023-04-14T12:03:56.730Z,14.01
2023-04-14T12:04:57.455Z,14.03
2023-04-14T12:05:57.529Z,14.07
2023-04-14T12:06:57.967Z,14.12
2023-04-14T12:07:58.579Z,14.20
2023-04-14T12:08:07.260Z,14.28
2023-04-14T12:09:07.720Z,14.36
2023-04-14T12:10:08.138Z,14.44
2023-04-14T12:11:08.683Z,14.53
2023-04-14T12:12:09.143Z,14.61
2023-04-14T12:13:09.369Z,14.69
2023-04-14T12:14:09.828Z,14.78
2023-04-14T12:15:10.191Z,14.89
2023-04-14T12:16:11.679Z,14.99